sensor_id;sensor_type;location;lat;lon;timestamp;pressure;altitude;pressure_sealevel;temperature;humidity
63654;BME280;49809;47.418;19.080;2024-02-28T00:02:14;100466.22;;;9.57;100.00
63654;BME280;49809;47.418;19.080;2024-02-28T00:05:39;100480.25;;;9.57;100.00
63654;BME280;49809;47.418;19.080;2024-02-28T00:08:45;100479.97;;;9.59;100.00
63654;BME280;49809;47.418;19.080;2024-02-28T00:11:51;100483.91;;;9.56;100.00
63654;BME280;49809;47.418;19.080;2024-02-28T00:15:18;100478.31;;;9.53;100.00
63654;BME280;49809;47.418;19.080;2024-02-28T00:18:24;100472.13;;;9.47;100.00
63654;BME280;49809;47.418;19.080;2024-02-28T00:21:31;100478.47;;;9.46;100.00
63654;BME280;49809;47.418;19.080;2024-02-28T00:24:36;100474.47;;;9.44;100.00
63654;BME280;49809;47.418;19.080;2024-02-28T00:27:43;100480.78;;;9.43;100.00
63654;BME280;49809;47.418;19.080;2024-02-28T00:30:47;100467.50;;;9.38;100.00
63654;BME280;49809;47.418;19.080;2024-02-28T00:33:51;100475.88;;;9.35;100.00
63654;BME280;49809;47.418;19.080;2024-02-28T00:37:15;100472.13;;;9.31;100.00
63654;BME280;49809;47.418;19.080;2024-02-28T00:40:21;100470.50;;;9.30;100.00
63654;BME280;49809;47.418;19.080;2024-02-28T00:43:26;100480.53;;;9.28;100.00
63654;BME280;49809;47.418;19.080;2024-02-28T00:46:33;100480.97;;;9.25;100.00
63654;BME280;49809;47.418;19.080;2024-02-28T00:50:02;100480.44;;;9.23;100.00
63654;BME280;49809;47.418;19.080;2024-02-28T00:53:06;100479.53;;;9.17;100.00
63654;BME280;49809;47.418;19.080;2024-02-28T00:56:12;100478.41;;;9.13;100.00
63654;BME280;49809;47.418;19.080;2024-02-28T00:59:35;100489.47;;;9.10;100.00
63654;BME280;49809;47.418;19.080;2024-02-28T01:03:39;100485.44;;;9.07;100.00
63654;BME280;49809;47.418;19.080;2024-02-28T01:06:47;100475.91;;;9.06;100.00
63654;BME280;49809;47.418;19.080;2024-02-28T01:10:13;100476.50;;;9.08;100.00
63654;BME280;49809;47.418;19.080;2024-02-28T01:13:40;100483.84;;;9.06;100.00
63654;BME280;49809;47.418;19.080;2024-02-28T01:17:23;100484.78;;;9.00;100.00
63654;BME280;49809;47.418;19.080;2024-02-28T01:20:28;100480.19;;;8.96;100.00
63654;BME280;49809;47.418;19.080;2024-02-28T01:23:54;100480.44;;;8.94;100.00
63654;BME280;49809;47.418;19.080;2024-02-28T01:27:40;100476.69;;;8.90;100.00
63654;BME280;49809;47.418;19.080;2024-02-28T01:30:47;100480.25;;;8.84;100.00
63654;BME280;49809;47.418;19.080;2024-02-28T01:33:53;100479.12;;;8.80;100.00
63654;BME280;49809;47.418;19.080;2024-02-28T01:36:57;100490.12;;;8.77;100.00
63654;BME280;49809;47.418;19.080;2024-02-28T01:40:08;100488.56;;;8.76;100.00
63654;BME280;49809;47.418;19.080;2024-02-28T01:43:19;100494.59;;;8.77;100.00
63654;BME280;49809;47.418;19.080;2024-02-28T01:46:28;100494.87;;;8.75;100.00
63654;BME280;49809;47.418;19.080;2024-02-28T01:49:42;100501.41;;;8.72;100.00
63654;BME280;49809;47.418;19.080;2024-02-28T01:52:48;100495.66;;;8.76;100.00
63654;BME280;49809;47.418;19.080;2024-02-28T01:55:51;100496.09;;;8.84;100.00
63654;BME280;49809;47.418;19.080;2024-02-28T01:58:57;100508.50;;;8.84;100.00
63654;BME280;49809;47.418;19.080;2024-02-28T02:02:25;100503.44;;;8.82;100.00
63654;BME280;49809;47.418;19.080;2024-02-28T02:05:32;100501.81;;;8.81;100.00
63654;BME280;49809;47.418;19.080;2024-02-28T02:08:41;100496.69;;;8.75;100.00
63654;BME280;49809;47.418;19.080;2024-02-28T02:12:06;100503.91;;;8.79;100.00
63654;BME280;49809;47.418;19.080;2024-02-28T02:15:31;100504.72;;;8.80;100.00
63654;BME280;49809;47.418;19.080;2024-02-28T02:19:05;100507.34;;;8.80;100.00
63654;BME280;49809;47.418;19.080;2024-02-28T02:22:56;100511.13;;;8.84;100.00
63654;BME280;49809;47.418;19.080;2024-02-28T02:26:45;100511.72;;;8.74;100.00
63654;BME280;49809;47.418;19.080;2024-02-28T02:30:30;100517.00;;;8.74;100.00
63654;BME280;49809;47.418;19.080;2024-02-28T02:33:55;100521.59;;;8.67;100.00
63654;BME280;49809;47.418;19.080;2024-02-28T02:37:19;100528.50;;;8.68;100.00
63654;BME280;49809;47.418;19.080;2024-02-28T02:40:22;100520.56;;;8.68;100.00
63654;BME280;49809;47.418;19.080;2024-02-28T02:43:27;100522.06;;;8.64;100.00
63654;BME280;49809;47.418;19.080;2024-02-28T02:46:52;100521.72;;;8.72;100.00
63654;BME280;49809;47.418;19.080;2024-02-28T02:50:05;100515.41;;;8.73;100.00
63654;BME280;49809;47.418;19.080;2024-02-28T02:53:30;100520.22;;;8.76;100.00
63654;BME280;49809;47.418;19.080;2024-02-28T02:57:05;100515.72;;;8.77;100.00
63654;BME280;49809;47.418;19.080;2024-02-28T03:00:38;100520.88;;;8.83;100.00
63654;BME280;49809;47.418;19.080;2024-02-28T03:03:41;100533.59;;;8.86;100.00
63654;BME280;49809;47.418;19.080;2024-02-28T03:06:50;100521.19;;;8.98;99.51
63654;BME280;49809;47.418;19.080;2024-02-28T03:10:13;100535.28;;;9.04;98.24
63654;BME280;49809;47.418;19.080;2024-02-28T03:13:57;100526.78;;;9.02;98.29
63654;BME280;49809;47.418;19.080;2024-02-28T03:17:34;100530.22;;;9.02;98.06
63654;BME280;49809;47.418;19.080;2024-02-28T03:20:59;100531.53;;;9.00;97.74
63654;BME280;49809;47.418;19.080;2024-02-28T03:24:08;100539.19;;;9.01;97.44
63654;BME280;49809;47.418;19.080;2024-02-28T03:31:12;100547.69;;;9.03;96.64
63654;BME280;49809;47.418;19.080;2024-02-28T03:34:23;100551.47;;;9.07;96.67
63654;BME280;49809;47.418;19.080;2024-02-28T03:37:25;100554.41;;;9.11;95.94
63654;BME280;49809;47.418;19.080;2024-02-28T03:40:33;100552.50;;;9.06;95.77
63654;BME280;49809;47.418;19.080;2024-02-28T03:43:40;100546.28;;;9.12;95.27
63654;BME280;49809;47.418;19.080;2024-02-28T03:46:50;100547.47;;;9.05;94.70
63654;BME280;49809;47.418;19.080;2024-02-28T03:49:56;100555.13;;;9.06;95.26
63654;BME280;49809;47.418;19.080;2024-02-28T03:53:01;100551.31;;;9.14;94.84
63654;BME280;49809;47.418;19.080;2024-02-28T03:56:08;100558.91;;;9.10;94.74
63654;BME280;49809;47.418;19.080;2024-02-28T03:59:13;100559.37;;;9.07;94.76
63654;BME280;49809;47.418;19.080;2024-02-28T04:02:17;100557.31;;;9.09;94.58
63654;BME280;49809;47.418;19.080;2024-02-28T04:05:22;100565.47;;;9.08;94.77
63654;BME280;49809;47.418;19.080;2024-02-28T04:08:49;100560.50;;;9.11;94.51
63654;BME280;49809;47.418;19.080;2024-02-28T04:11:57;100559.25;;;9.14;93.79
63654;BME280;49809;47.418;19.080;2024-02-28T04:15:02;100569.81;;;9.14;93.71
63654;BME280;49809;47.418;19.080;2024-02-28T04:18:08;100575.91;;;9.14;93.60
63654;BME280;49809;47.418;19.080;2024-02-28T04:21:18;100582.13;;;9.08;94.14
63654;BME280;49809;47.418;19.080;2024-02-28T04:24:24;100579.37;;;9.03;94.29
63654;BME280;49809;47.418;19.080;2024-02-28T04:27:37;100582.22;;;9.02;94.44
63654;BME280;49809;47.418;19.080;2024-02-28T04:30:47;100579.84;;;9.00;94.21
63654;BME280;49809;47.418;19.080;2024-02-28T04:33:51;100581.22;;;9.03;94.29
63654;BME280;49809;47.418;19.080;2024-02-28T04:36:59;100571.88;;;9.12;93.64
63654;BME280;49809;47.418;19.080;2024-02-28T04:40:03;100579.25;;;9.10;93.16
63654;BME280;49809;47.418;19.080;2024-02-28T04:43:28;100578.91;;;9.06;93.56
63654;BME280;49809;47.418;19.080;2024-02-28T04:47:19;100578.78;;;9.13;93.57
63654;BME280;49809;47.418;19.080;2024-02-28T04:50:46;100574.12;;;9.20;92.80
63654;BME280;49809;47.418;19.080;2024-02-28T04:54:14;100582.63;;;9.22;92.26
63654;BME280;49809;47.418;19.080;2024-02-28T04:57:38;100583.25;;;9.12;92.59
63654;BME280;49809;47.418;19.080;2024-02-28T05:00:44;100578.28;;;9.16;92.22
63654;BME280;49809;47.418;19.080;2024-02-28T05:04:12;100577.25;;;9.17;92.20
63654;BME280;49809;47.418;19.080;2024-02-28T05:07:21;100582.56;;;9.05;92.75
63654;BME280;49809;47.418;19.080;2024-02-28T05:10:52;100588.63;;;9.18;92.77
63654;BME280;49809;47.418;19.080;2024-02-28T05:13:59;100597.84;;;9.03;92.59
63654;BME280;49809;47.418;19.080;2024-02-28T05:17:23;100611.25;;;9.13;92.99
63654;BME280;49809;47.418;19.080;2024-02-28T05:20:51;100612.69;;;8.93;93.31
63654;BME280;49809;47.418;19.080;2024-02-28T05:24:16;100610.25;;;8.91;93.50
63654;BME280;49809;47.418;19.080;2024-02-28T05:27:59;100612.91;;;8.91;93.60
63654;BME280;49809;47.418;19.080;2024-02-28T05:31:26;100602.94;;;8.82;94.66
63654;BME280;49809;47.418;19.080;2024-02-28T05:34:50;100621.19;;;8.83;94.49
63654;BME280;49809;47.418;19.080;2024-02-28T05:38:15;100616.72;;;8.84;94.63
63654;BME280;49809;47.418;19.080;2024-02-28T05:41:23;100619.03;;;8.80;95.04
63654;BME280;49809;47.418;19.080;2024-02-28T05:44:50;100623.94;;;8.77;95.18
63654;BME280;49809;47.418;19.080;2024-02-28T05:48:00;100624.19;;;8.75;94.52
63654;BME280;49809;47.418;19.080;2024-02-28T05:51:04;100630.13;;;8.82;94.59
63654;BME280;49809;47.418;19.080;2024-02-28T05:54:32;100633.81;;;8.81;94.60
63654;BME280;49809;47.418;19.080;2024-02-28T05:57:38;100635.78;;;8.74;94.52
63654;BME280;49809;47.418;19.080;2024-02-28T06:01:04;100643.34;;;8.82;94.14
63654;BME280;49809;47.418;19.080;2024-02-28T06:04:07;100640.81;;;8.87;93.95
63654;BME280;49809;47.418;19.080;2024-02-28T06:07:11;100640.69;;;8.82;93.67
63654;BME280;49809;47.418;19.080;2024-02-28T06:10:15;100646.19;;;8.92;93.70
63654;BME280;49809;47.418;19.080;2024-02-28T06:13:22;100644.81;;;9.01;93.64
63654;BME280;49809;47.418;19.080;2024-02-28T06:16:35;100647.91;;;9.10;92.70
63654;BME280;49809;47.418;19.080;2024-02-28T06:19:37;100646.41;;;9.02;92.83
63654;BME280;49809;47.418;19.080;2024-02-28T06:23:06;100645.94;;;9.05;92.56
63654;BME280;49809;47.418;19.080;2024-02-28T06:26:48;100641.59;;;8.99;92.44
63654;BME280;49809;47.418;19.080;2024-02-28T06:30:15;100647.22;;;9.14;92.03
63654;BME280;49809;47.418;19.080;2024-02-28T06:33:20;100648.25;;;9.13;91.68
63654;BME280;49809;47.418;19.080;2024-02-28T06:36:26;100658.09;;;9.18;91.54
63654;BME280;49809;47.418;19.080;2024-02-28T06:39:35;100657.87;;;9.08;91.61
63654;BME280;49809;47.418;19.080;2024-02-28T06:43:01;100662.94;;;9.09;91.55
63654;BME280;49809;47.418;19.080;2024-02-28T06:46:28;100651.03;;;8.95;92.05
63654;BME280;49809;47.418;19.080;2024-02-28T06:49:51;100659.28;;;8.99;91.90
63654;BME280;49809;47.418;19.080;2024-02-28T06:57:02;100664.88;;;9.14;91.66
63654;BME280;49809;47.418;19.080;2024-02-28T07:00:25;100666.94;;;9.12;91.22
63654;BME280;49809;47.418;19.080;2024-02-28T07:03:45;100676.31;;;9.31;90.49
63654;BME280;49809;47.418;19.080;2024-02-28T07:06:56;100685.91;;;9.49;90.13
63654;BME280;49809;47.418;19.080;2024-02-28T07:10:06;100677.53;;;9.80;87.87
63654;BME280;49809;47.418;19.080;2024-02-28T07:13:10;100695.00;;;10.10;87.03
63654;BME280;49809;47.418;19.080;2024-02-28T07:16:16;100691.22;;;10.34;86.36
63654;BME280;49809;47.418;19.080;2024-02-28T07:19:28;100688.41;;;10.57;85.46
63654;BME280;49809;47.418;19.080;2024-02-28T07:22:54;100701.00;;;10.50;84.31
63654;BME280;49809;47.418;19.080;2024-02-28T07:25:57;100701.47;;;10.64;83.89
63654;BME280;49809;47.418;19.080;2024-02-28T07:29:11;100701.00;;;10.67;83.51
63654;BME280;49809;47.418;19.080;2024-02-28T07:32:18;100701.16;;;11.15;82.12
63654;BME280;49809;47.418;19.080;2024-02-28T07:35:21;100701.09;;;11.10;81.32
63654;BME280;49809;47.418;19.080;2024-02-28T07:38:27;100707.53;;;11.36;80.34
63654;BME280;49809;47.418;19.080;2024-02-28T07:41:30;100702.09;;;11.48;79.93
63654;BME280;49809;47.418;19.080;2024-02-28T07:44:35;100709.19;;;11.42;80.16
63654;BME280;49809;47.418;19.080;2024-02-28T07:48:09;100718.41;;;12.05;79.20
63654;BME280;49809;47.418;19.080;2024-02-28T07:51:14;100715.59;;;12.43;75.96
63654;BME280;49809;47.418;19.080;2024-02-28T07:54:18;100716.38;;;12.44;74.84
63654;BME280;49809;47.418;19.080;2024-02-28T07:57:24;100711.37;;;12.47;73.89
63654;BME280;49809;47.418;19.080;2024-02-28T08:00:29;100712.66;;;12.45;74.50
63654;BME280;49809;47.418;19.080;2024-02-28T08:03:40;100725.34;;;12.38;75.61
63654;BME280;49809;47.418;19.080;2024-02-28T08:06:44;100719.41;;;12.57;74.72
63654;BME280;49809;47.418;19.080;2024-02-28T08:09:47;100719.94;;;12.59;74.47
63654;BME280;49809;47.418;19.080;2024-02-28T08:12:55;100722.03;;;12.52;74.50
63654;BME280;49809;47.418;19.080;2024-02-28T08:16:01;100731.16;;;12.67;74.68
63654;BME280;49809;47.418;19.080;2024-02-28T08:19:09;100723.16;;;12.61;75.39
63654;BME280;49809;47.418;19.080;2024-02-28T08:22:14;100726.56;;;12.94;74.00
63654;BME280;49809;47.418;19.080;2024-02-28T08:25:17;100724.00;;;13.09;73.21
63654;BME280;49809;47.418;19.080;2024-02-28T08:28:28;100721.84;;;13.01;73.47
63654;BME280;49809;47.418;19.080;2024-02-28T08:31:49;100721.44;;;12.77;73.84
63654;BME280;49809;47.418;19.080;2024-02-28T08:34:58;100716.53;;;13.01;73.93
63654;BME280;49809;47.418;19.080;2024-02-28T08:38:37;100718.13;;;13.02;72.97
63654;BME280;49809;47.418;19.080;2024-02-28T08:42:00;100722.75;;;12.80;74.23
63654;BME280;49809;47.418;19.080;2024-02-28T08:45:03;100728.81;;;13.12;73.07
63654;BME280;49809;47.418;19.080;2024-02-28T08:48:11;100725.94;;;13.14;73.49
63654;BME280;49809;47.418;19.080;2024-02-28T08:51:35;100722.53;;;13.28;72.39
63654;BME280;49809;47.418;19.080;2024-02-28T08:55:15;100725.94;;;13.14;73.06
63654;BME280;49809;47.418;19.080;2024-02-28T08:58:24;100731.50;;;13.12;73.08
63654;BME280;49809;47.418;19.080;2024-02-28T09:01:32;100730.81;;;12.90;74.23
63654;BME280;49809;47.418;19.080;2024-02-28T09:04:37;100734.50;;;13.26;73.24
63654;BME280;49809;47.418;19.080;2024-02-28T09:07:44;100732.09;;;13.24;73.20
63654;BME280;49809;47.418;19.080;2024-02-28T09:10:46;100738.03;;;13.41;71.53
63654;BME280;49809;47.418;19.080;2024-02-28T09:13:51;100731.06;;;13.30;72.59
63654;BME280;49809;47.418;19.080;2024-02-28T09:16:56;100731.38;;;13.39;71.55
63654;BME280;49809;47.418;19.080;2024-02-28T09:20:07;100733.06;;;13.65;70.91
63654;BME280;49809;47.418;19.080;2024-02-28T09:23:13;100729.69;;;13.95;69.91
63654;BME280;49809;47.418;19.080;2024-02-28T09:26:17;100726.78;;;13.91;70.15
63654;BME280;49809;47.418;19.080;2024-02-28T09:29:20;100729.22;;;14.08;69.17
63654;BME280;49809;47.418;19.080;2024-02-28T09:32:28;100733.00;;;14.53;68.90
63654;BME280;49809;47.418;19.080;2024-02-28T09:35:55;100725.41;;;15.36;65.54
63654;BME280;49809;47.418;19.080;2024-02-28T09:39:02;100733.84;;;15.73;63.61
63654;BME280;49809;47.418;19.080;2024-02-28T09:42:06;100731.09;;;15.83;62.94
63654;BME280;49809;47.418;19.080;2024-02-28T09:45:31;100730.69;;;15.56;63.82
63654;BME280;49809;47.418;19.080;2024-02-28T09:48:34;100727.84;;;15.27;65.25
63654;BME280;49809;47.418;19.080;2024-02-28T09:51:42;100728.37;;;15.93;60.01
63654;BME280;49809;47.418;19.080;2024-02-28T09:54:48;100719.31;;;16.67;59.30
63654;BME280;49809;47.418;19.080;2024-02-28T09:57:58;100732.41;;;15.91;62.23
63654;BME280;49809;47.418;19.080;2024-02-28T10:01:04;100728.84;;;16.05;60.86
63654;BME280;49809;47.418;19.080;2024-02-28T10:04:09;100736.31;;;16.03;62.54
63654;BME280;49809;47.418;19.080;2024-02-28T10:07:16;100734.38;;;16.14;60.67
63654;BME280;49809;47.418;19.080;2024-02-28T10:10:21;100740.56;;;16.09;60.83
63654;BME280;49809;47.418;19.080;2024-02-28T10:13:24;100743.47;;;16.86;58.55
63654;BME280;49809;47.418;19.080;2024-02-28T10:16:27;100741.38;;;16.44;60.04
63654;BME280;49809;47.418;19.080;2024-02-28T10:19:35;100744.28;;;16.14;61.35
63654;BME280;49809;47.418;19.080;2024-02-28T10:22:41;100745.09;;;15.45;62.58
63654;BME280;49809;47.418;19.080;2024-02-28T10:25:48;100745.91;;;16.09;63.09
63654;BME280;49809;47.418;19.080;2024-02-28T10:29:11;100745.34;;;16.13;61.36
63654;BME280;49809;47.418;19.080;2024-02-28T10:32:17;100743.78;;;15.47;63.54
63654;BME280;49809;47.418;19.080;2024-02-28T10:35:27;100748.31;;;15.47;63.52
63654;BME280;49809;47.418;19.080;2024-02-28T10:38:36;100756.06;;;16.07;62.34
63654;BME280;49809;47.418;19.080;2024-02-28T10:41:44;100742.84;;;16.31;60.43
63654;BME280;49809;47.418;19.080;2024-02-28T10:44:52;100748.66;;;15.94;62.28
63654;BME280;49809;47.418;19.080;2024-02-28T10:48:19;100746.06;;;15.79;63.20
63654;BME280;49809;47.418;19.080;2024-02-28T10:51:29;100742.56;;;16.28;62.51
63654;BME280;49809;47.418;19.080;2024-02-28T10:54:40;100745.37;;;16.46;60.22
63654;BME280;49809;47.418;19.080;2024-02-28T10:57:58;100739.66;;;16.63;59.69
63654;BME280;49809;47.418;19.080;2024-02-28T11:01:10;100741.09;;;16.84;60.03
63654;BME280;49809;47.418;19.080;2024-02-28T11:04:17;100748.25;;;16.89;59.21
63654;BME280;49809;47.418;19.080;2024-02-28T11:07:24;100743.69;;;16.89;59.17
63654;BME280;49809;47.418;19.080;2024-02-28T11:14:23;100736.62;;;17.51;57.17
63654;BME280;49809;47.418;19.080;2024-02-28T11:17:30;100740.31;;;18.16;54.23
63654;BME280;49809;47.418;19.080;2024-02-28T11:20:35;100736.47;;;17.66;56.95
63654;BME280;49809;47.418;19.080;2024-02-28T11:23:38;100736.22;;;18.56;53.96
63654;BME280;49809;47.418;19.080;2024-02-28T11:26:40;100722.13;;;18.97;53.15
63654;BME280;49809;47.418;19.080;2024-02-28T11:29:44;100739.13;;;18.41;54.17
63654;BME280;49809;47.418;19.080;2024-02-28T11:32:52;100737.31;;;18.55;52.95
63654;BME280;49809;47.418;19.080;2024-02-28T11:35:57;100722.53;;;19.04;51.64
63654;BME280;49809;47.418;19.080;2024-02-28T11:39:02;100723.25;;;18.63;54.08
63654;BME280;49809;47.418;19.080;2024-02-28T11:42:15;100728.28;;;19.66;51.22
63654;BME280;49809;47.418;19.080;2024-02-28T11:45:20;100726.94;;;19.55;50.50
63654;BME280;49809;47.418;19.080;2024-02-28T11:48:34;100720.38;;;20.19;48.56
63654;BME280;49809;47.418;19.080;2024-02-28T11:51:40;100725.16;;;19.86;49.42
63654;BME280;49809;47.418;19.080;2024-02-28T11:54:45;100717.84;;;20.58;48.01
63654;BME280;49809;47.418;19.080;2024-02-28T11:57:51;100708.03;;;19.60;49.67
63654;BME280;49809;47.418;19.080;2024-02-28T12:00:59;100712.81;;;19.99;49.71
63654;BME280;49809;47.418;19.080;2024-02-28T12:04:08;100702.97;;;19.44;50.33
63654;BME280;49809;47.418;19.080;2024-02-28T12:07:11;100707.47;;;18.43;52.94
63654;BME280;49809;47.418;19.080;2024-02-28T12:10:15;100706.19;;;18.73;52.99
63654;BME280;49809;47.418;19.080;2024-02-28T12:13:22;100699.13;;;18.63;52.26
63654;BME280;49809;47.418;19.080;2024-02-28T12:16:25;100703.25;;;19.02;51.31
63654;BME280;49809;47.418;19.080;2024-02-28T12:19:30;100705.53;;;18.30;53.01
63654;BME280;49809;47.418;19.080;2024-02-28T12:22:37;100697.63;;;18.57;53.34
63654;BME280;49809;47.418;19.080;2024-02-28T12:25:40;100705.81;;;18.47;53.97
63654;BME280;49809;47.418;19.080;2024-02-28T12:28:43;100699.69;;;19.20;51.75
63654;BME280;49809;47.418;19.080;2024-02-28T12:31:52;100700.88;;;19.14;51.00
63654;BME280;49809;47.418;19.080;2024-02-28T12:34:56;100698.28;;;18.95;51.66
63654;BME280;49809;47.418;19.080;2024-02-28T12:38:01;100697.69;;;19.12;51.92
63654;BME280;49809;47.418;19.080;2024-02-28T12:41:05;100685.34;;;18.84;52.11
63654;BME280;49809;47.418;19.080;2024-02-28T12:44:08;100683.94;;;18.73;52.71
63654;BME280;49809;47.418;19.080;2024-02-28T12:47:12;100690.06;;;18.59;53.65
63654;BME280;49809;47.418;19.080;2024-02-28T12:50:15;100688.13;;;19.33;50.83
63654;BME280;49809;47.418;19.080;2024-02-28T12:53:21;100690.72;;;18.97;51.39
63654;BME280;49809;47.418;19.080;2024-02-28T12:56:24;100682.88;;;19.28;50.23
63654;BME280;49809;47.418;19.080;2024-02-28T12:59:31;100681.56;;;19.53;49.27
63654;BME280;49809;47.418;19.080;2024-02-28T13:02:33;100680.44;;;19.68;50.91
63654;BME280;49809;47.418;19.080;2024-02-28T13:05:39;100679.06;;;19.57;50.74
63654;BME280;49809;47.418;19.080;2024-02-28T13:08:45;100674.16;;;19.72;50.59
63654;BME280;49809;47.418;19.080;2024-02-28T13:11:50;100683.16;;;19.40;51.70
63654;BME280;49809;47.418;19.080;2024-02-28T13:14:58;100676.03;;;19.49;50.92
63654;BME280;49809;47.418;19.080;2024-02-28T13:18:03;100677.19;;;19.43;50.28
63654;BME280;49809;47.418;19.080;2024-02-28T13:21:14;100677.78;;;19.13;51.14
63654;BME280;49809;47.418;19.080;2024-02-28T13:24:20;100668.56;;;19.19;52.50
63654;BME280;49809;47.418;19.080;2024-02-28T13:27:26;100672.66;;;19.44;51.37
63654;BME280;49809;47.418;19.080;2024-02-28T13:30:32;100673.63;;;19.48;51.53
63654;BME280;49809;47.418;19.080;2024-02-28T13:33:38;100669.84;;;19.35;51.86
63654;BME280;49809;47.418;19.080;2024-02-28T13:36:43;100664.47;;;19.08;52.59
63654;BME280;49809;47.418;19.080;2024-02-28T13:39:47;100662.69;;;18.90;52.96
63654;BME280;49809;47.418;19.080;2024-02-28T13:42:50;100660.72;;;18.82;52.29
63654;BME280;49809;47.418;19.080;2024-02-28T13:45:55;100661.69;;;18.86;52.53
63654;BME280;49809;47.418;19.080;2024-02-28T13:49:06;100664.50;;;18.94;52.89
63654;BME280;49809;47.418;19.080;2024-02-28T13:52:13;100654.03;;;18.65;53.27
63654;BME280;49809;47.418;19.080;2024-02-28T13:55:19;100661.19;;;18.84;53.49
63654;BME280;49809;47.418;19.080;2024-02-28T13:58:22;100659.72;;;18.78;52.85
63654;BME280;49809;47.418;19.080;2024-02-28T14:01:26;100656.72;;;18.65;53.33
63654;BME280;49809;47.418;19.080;2024-02-28T14:04:33;100661.69;;;18.86;52.25
63654;BME280;49809;47.418;19.080;2024-02-28T14:07:36;100663.28;;;18.73;52.61
63654;BME280;49809;47.418;19.080;2024-02-28T14:10:43;100664.56;;;18.76;52.97
63654;BME280;49809;47.418;19.080;2024-02-28T14:13:48;100660.09;;;18.57;53.56
63654;BME280;49809;47.418;19.080;2024-02-28T14:16:52;100665.66;;;18.75;52.37
63654;BME280;49809;47.418;19.080;2024-02-28T14:19:55;100662.88;;;18.66;53.70
63654;BME280;49809;47.418;19.080;2024-02-28T14:23:02;100656.22;;;18.63;52.99
63654;BME280;49809;47.418;19.080;2024-02-28T14:26:30;100661.22;;;18.51;54.42
63654;BME280;49809;47.418;19.080;2024-02-28T14:29:38;100661.41;;;18.41;54.70
63654;BME280;49809;47.418;19.080;2024-02-28T14:32:43;100662.81;;;18.52;53.66
63654;BME280;49809;47.418;19.080;2024-02-28T14:35:49;100667.34;;;18.38;54.23
63654;BME280;49809;47.418;19.080;2024-02-28T14:38:54;100660.56;;;18.27;54.62
63654;BME280;49809;47.418;19.080;2024-02-28T14:41:57;100657.00;;;18.32;54.42
63654;BME280;49809;47.418;19.080;2024-02-28T14:45:11;100668.28;;;18.15;55.32
63654;BME280;49809;47.418;19.080;2024-02-28T14:48:59;100664.28;;;18.12;54.77
63654;BME280;49809;47.418;19.080;2024-02-28T14:52:31;100673.22;;;17.89;56.22
63654;BME280;49809;47.418;19.080;2024-02-28T15:00:11;100673.25;;;17.47;57.05
63654;BME280;49809;47.418;19.080;2024-02-28T15:03:20;100676.44;;;17.25;58.48
63654;BME280;49809;47.418;19.080;2024-02-28T15:06:27;100674.13;;;16.94;60.55
63654;BME280;49809;47.418;19.080;2024-02-28T15:09:31;100686.81;;;16.84;61.06
63654;BME280;49809;47.418;19.080;2024-02-28T15:12:34;100679.12;;;16.77;61.97
63654;BME280;49809;47.418;19.080;2024-02-28T15:16:04;100686.75;;;16.65;62.25
63654;BME280;49809;47.418;19.080;2024-02-28T15:19:11;100690.12;;;16.37;63.39
63654;BME280;49809;47.418;19.080;2024-02-28T15:22:16;100693.44;;;16.24;64.14
63654;BME280;49809;47.418;19.080;2024-02-28T15:25:20;100691.94;;;16.13;64.92
63654;BME280;49809;47.418;19.080;2024-02-28T15:37:10;100694.97;;;15.52;67.66
63654;BME280;49809;47.418;19.080;2024-02-28T15:40:15;100693.41;;;15.31;68.08
63654;BME280;49809;47.418;19.080;2024-02-28T15:43:47;100697.72;;;15.21;68.73
63654;BME280;49809;47.418;19.080;2024-02-28T15:46:52;100696.66;;;15.17;68.80
63654;BME280;49809;47.418;19.080;2024-02-28T15:50:14;100701.78;;;15.04;69.31
63654;BME280;49809;47.418;19.080;2024-02-28T15:53:20;100701.53;;;14.90;69.89
63654;BME280;49809;47.418;19.080;2024-02-28T15:56:22;100703.44;;;14.74;70.85
63654;BME280;49809;47.418;19.080;2024-02-28T15:59:30;100697.84;;;14.61;71.36
63654;BME280;49809;47.418;19.080;2024-02-28T16:02:34;100706.91;;;14.60;71.35
63654;BME280;49809;47.418;19.080;2024-02-28T16:05:38;100710.09;;;14.42;72.35
63654;BME280;49809;47.418;19.080;2024-02-28T16:08:43;100710.63;;;14.39;72.56
63654;BME280;49809;47.418;19.080;2024-02-28T16:11:49;100710.59;;;14.28;73.12
63654;BME280;49809;47.418;19.080;2024-02-28T16:14:53;100718.56;;;14.28;73.32
63654;BME280;49809;47.418;19.080;2024-02-28T16:18:29;100729.75;;;14.15;74.38
63654;BME280;49809;47.418;19.080;2024-02-28T16:21:33;100724.97;;;14.07;74.69
63654;BME280;49809;47.418;19.080;2024-02-28T16:24:37;100736.88;;;13.89;76.03
63654;BME280;49809;47.418;19.080;2024-02-28T16:27:41;100731.78;;;13.73;76.87
63654;BME280;49809;47.418;19.080;2024-02-28T16:31:09;100733.31;;;13.59;77.61
63654;BME280;49809;47.418;19.080;2024-02-28T16:34:14;100734.56;;;13.41;78.17
63654;BME280;49809;47.418;19.080;2024-02-28T16:37:19;100740.62;;;13.31;78.63
63654;BME280;49809;47.418;19.080;2024-02-28T16:40:26;100747.94;;;13.09;80.01
63654;BME280;49809;47.418;19.080;2024-02-28T16:43:32;100750.03;;;13.02;80.40
63654;BME280;49809;47.418;19.080;2024-02-28T16:46:38;100756.84;;;12.93;80.77
63654;BME280;49809;47.418;19.080;2024-02-28T16:49:47;100761.06;;;12.89;80.59
63654;BME280;49809;47.418;19.080;2024-02-28T16:52:53;100752.75;;;12.75;81.43
63654;BME280;49809;47.418;19.080;2024-02-28T16:56:16;100761.16;;;12.62;82.46
63654;BME280;49809;47.418;19.080;2024-02-28T16:59:22;100769.97;;;12.41;84.00